createdAt,value
2023-02-22T06:17:49.956Z,929.6
2023-02-22T06:32:50.695Z,929.6
2023-02-22T06:47:50.525Z,929.8
2023-02-22T07:02:52.243Z,930.1
2023-02-22T07:17:52.571Z,930
2023-02-22T07:32:56.368Z,930
2023-02-22T07:47:54.071Z,929.8
2023-02-22T08:02:54.141Z,929.7
2023-02-22T08:17:54.805Z,929.6
2023-02-22T08:32:56.685Z,929.6
2023-02-22T08:48:00.575Z,929.6
2023-02-22T09:02:57.256Z,929.5
2023-02-22T09:17:56.893Z,929.3
2023-02-22T09:32:59.062Z,929.1
2023-02-22T09:48:23.056Z,929.1
2023-02-22T10:03:00.405Z,929
2023-02-22T10:18:02.501Z,929
2023-02-22T10:33:03.645Z,928.9
2023-02-22T10:48:02.692Z,928.8
2023-02-22T11:03:02.007Z,928.7
2023-02-22T11:18:09.216Z,928.7
2023-02-22T11:33:06.165Z,928.6
2023-02-22T11:48:06.386Z,928.6
2023-02-22T12:03:21.820Z,928.5
2023-02-22T12:18:08.138Z,928.2
2023-02-22T12:33:07.335Z,928.2
2023-02-22T12:48:07.363Z,927.9
2023-02-22T13:03:07.328Z,927.8
2023-02-22T13:18:16.582Z,927.8
2023-02-22T13:33:13.778Z,927.8
2023-02-22T13:48:10.335Z,927.7
2023-02-22T14:18:21.415Z,927.7
2023-02-22T15:00:09.198Z,927.8
2023-02-22T15:03:12.157Z,928
2023-02-22T15:18:19.216Z,928
2023-02-22T15:33:13.500Z,927.9
2023-02-22T15:48:15.010Z,927.8
2023-02-22T16:03:35.648Z,927.8
2023-02-22T16:18:18.918Z,927.9
2023-02-22T16:33:16.495Z,927.9
2023-02-22T16:48:16.977Z,928
2023-02-22T17:03:17.402Z,928.1
2023-02-22T17:18:19.908Z,928.2
2023-02-22T17:33:18.621Z,928.4
2023-02-22T17:48:19.501Z,928.5
2023-02-22T18:03:20.018Z,928.6
